createdAt,value
2023-04-27T00:00:48.361Z,2.50
2023-04-27T00:03:15.277Z,2.77
2023-04-27T00:05:42.224Z,3.10
2023-04-27T00:08:08.811Z,3.00
2023-04-27T00:10:35.340Z,2.87
2023-04-27T00:13:01.905Z,3.40
2023-04-27T00:15:28.866Z,3.20
2023-04-27T00:17:56.752Z,3.53
2023-04-27T00:20:23.411Z,3.17
2023-04-27T00:22:49.989Z,3.70
2023-04-27T00:25:16.470Z,3.07
2023-04-27T00:27:43.005Z,3.13
2023-04-27T00:30:10.259Z,3.07
2023-04-27T00:32:36.832Z,3.40
2023-04-27T00:35:03.598Z,3.33
2023-04-27T00:37:30.108Z,3.47
2023-04-27T00:39:56.603Z,3.17
2023-04-27T00:42:24.339Z,3.33
2023-04-27T00:44:50.840Z,3.20
2023-04-27T00:47:17.539Z,3.43
2023-04-27T00:49:44.512Z,3.23
2023-04-27T00:52:10.986Z,3.17
2023-04-27T00:54:37.815Z,2.83
2023-04-27T00:57:04.519Z,2.93
2023-04-27T00:59:31.009Z,3.10
2023-04-27T01:01:57.634Z,3.33
2023-04-27T01:04:24.475Z,3.03
2023-04-27T01:06:51.102Z,3.00
2023-04-27T01:09:19.181Z,3.00
2023-04-27T01:11:46.726Z,2.80
2023-04-27T01:14:13.652Z,3.30
2023-04-27T01:16:40.181Z,3.77
2023-04-27T01:19:08.553Z,3.23
2023-04-27T01:21:35.070Z,3.03
2023-04-27T01:24:03.287Z,3.10
2023-04-27T01:26:29.809Z,3.00
2023-04-27T01:28:56.310Z,2.93
2023-04-27T01:31:23.350Z,3.47
2023-04-27T01:33:49.883Z,3.27
2023-04-27T01:36:16.582Z,3.10
2023-04-27T01:38:43.930Z,3.50
2023-04-27T01:41:10.435Z,3.50
2023-04-27T01:43:36.936Z,3.43
2023-04-27T01:46:11.118Z,3.33
2023-04-27T01:48:40.364Z,3.30
2023-04-27T01:51:06.909Z,3.10
2023-04-27T01:53:33.890Z,3.67
2023-04-27T01:56:00.622Z,3.40
2023-04-27T01:58:27.179Z,3.17
2023-04-27T02:00:53.681Z,3.73
2023-04-27T02:03:20.324Z,3.40
2023-04-27T02:05:47.296Z,3.60
2023-04-27T02:08:13.897Z,3.30
2023-04-27T02:10:40.555Z,3.70
2023-04-27T02:13:07.071Z,4.07
2023-04-27T02:15:34.662Z,3.37
2023-04-27T02:18:02.630Z,3.67
2023-04-27T02:20:32.818Z,3.57
2023-04-27T02:22:59.333Z,3.30
2023-04-27T02:25:26.046Z,3.43
2023-04-27T02:27:52.720Z,3.50
2023-04-27T02:30:20.538Z,3.80
2023-04-27T02:32:47.909Z,3.27
2023-04-27T02:35:14.412Z,3.67
2023-04-27T02:37:41.005Z,3.13
2023-04-27T02:40:08.822Z,3.70
2023-04-27T02:42:37.428Z,3.10
2023-04-27T02:45:06.421Z,3.43
2023-04-27T02:47:32.945Z,3.50
2023-04-27T02:50:00.396Z,3.50
2023-04-27T02:52:27.069Z,3.50
2023-04-27T02:54:53.533Z,3.63
2023-04-27T02:57:20.059Z,3.20
2023-04-27T02:59:46.524Z,3.27
2023-04-27T03:02:13.011Z,3.47
2023-04-27T03:04:39.596Z,3.40
2023-04-27T03:07:06.196Z,3.47
2023-04-27T03:09:32.802Z,3.63
2023-04-27T03:11:59.281Z,3.30
2023-04-27T03:14:25.812Z,3.80
2023-04-27T03:16:52.690Z,2.93
2023-04-27T03:19:19.278Z,3.90
2023-04-27T03:21:45.786Z,3.03
2023-04-27T03:24:12.281Z,3.17
2023-04-27T03:26:41.388Z,3.53
2023-04-27T03:29:07.907Z,3.33
2023-04-27T03:31:34.479Z,3.60
2023-04-27T03:34:00.988Z,3.70
2023-04-27T03:36:27.794Z,3.57
2023-04-27T03:38:54.300Z,3.60
2023-04-27T03:41:20.793Z,4.10
2023-04-27T03:43:48.320Z,3.60
2023-04-27T03:46:14.836Z,3.03
2023-04-27T03:48:43.129Z,3.67
2023-04-27T03:51:09.627Z,3.30
2023-04-27T03:53:36.161Z,3.37
2023-04-27T03:56:02.901Z,3.50
2023-04-27T03:58:29.376Z,3.40
2023-04-27T04:00:56.540Z,3.50
2023-04-27T04:03:23.225Z,3.27
2023-04-27T04:05:49.884Z,3.47
2023-04-27T04:08:16.387Z,3.37
2023-04-27T04:10:42.871Z,3.73
2023-04-27T04:13:10.540Z,3.63
2023-04-27T04:15:37.076Z,3.43
2023-04-27T04:18:03.717Z,3.07
2023-04-27T04:20:32.316Z,3.60
2023-04-27T04:22:58.832Z,3.73
2023-04-27T04:25:25.465Z,4.03
2023-04-27T04:27:51.977Z,3.93
2023-04-27T04:30:19.261Z,4.00
2023-04-27T04:32:45.821Z,3.20
2023-04-27T04:35:12.499Z,3.33
2023-04-27T04:37:39.010Z,4.07
2023-04-27T04:40:10.234Z,3.53
2023-04-27T04:42:37.289Z,3.70
2023-04-27T04:45:04.723Z,3.43
2023-04-27T04:47:31.514Z,3.07
2023-04-27T04:49:58.609Z,3.67
2023-04-27T04:52:25.118Z,3.50
2023-04-27T04:54:52.591Z,3.23
2023-04-27T04:57:19.183Z,3.77
2023-04-27T04:59:45.637Z,3.30
2023-04-27T05:02:12.113Z,4.87
2023-04-27T05:04:38.716Z,6.47
2023-04-27T05:07:07.690Z,7.53
2023-04-27T05:09:34.613Z,8.57
2023-04-27T05:12:01.519Z,7.43
2023-04-27T05:14:28.004Z,7.03
2023-04-27T05:16:54.497Z,6.30
2023-04-27T05:19:21.056Z,4.60
2023-04-27T05:21:47.529Z,4.20
2023-04-27T05:24:16.758Z,4.80
2023-04-27T05:26:43.871Z,4.80
2023-04-27T05:29:10.603Z,4.80
2023-04-27T05:31:37.173Z,4.80
2023-04-27T05:34:03.751Z,5.53
2023-04-27T05:36:30.292Z,4.20
2023-04-27T05:38:56.891Z,4.67
2023-04-27T05:41:23.436Z,4.23
2023-04-27T05:43:50.600Z,4.57
2023-04-27T05:46:17.122Z,3.87
2023-04-27T05:48:43.686Z,4.30
2023-04-27T05:51:10.287Z,4.17
2023-04-27T05:53:37.694Z,4.23
2023-04-27T05:56:06.197Z,4.23
2023-04-27T05:58:33.267Z,4.47
2023-04-27T06:01:02.499Z,4.30
2023-04-27T06:03:30.353Z,4.47
2023-04-27T06:05:59.443Z,4.90
2023-04-27T06:08:26.863Z,4.73
2023-04-27T06:10:53.775Z,4.83
2023-04-27T06:13:20.989Z,5.23
2023-04-27T06:15:47.542Z,5.13
2023-04-27T06:18:14.292Z,4.70
2023-04-27T06:20:42.137Z,4.77
2023-04-27T06:23:08.638Z,4.67
2023-04-27T06:25:36.805Z,4.70
2023-04-27T06:28:03.326Z,4.90
2023-04-27T06:30:29.850Z,4.40
2023-04-27T06:32:56.422Z,4.20
2023-04-27T06:35:22.945Z,3.80
2023-04-27T06:37:49.448Z,3.60
2023-04-27T06:40:16.033Z,3.83
2023-04-27T06:42:42.520Z,4.33
2023-04-27T06:45:09.915Z,3.90
2023-04-27T06:47:36.383Z,3.70
2023-04-27T06:50:03.512Z,4.10
2023-04-27T06:52:32.812Z,4.27
2023-04-27T06:54:59.346Z,4.23
2023-04-27T06:57:25.821Z,3.67
2023-04-27T06:59:52.405Z,3.83
2023-04-27T07:02:19.141Z,3.60
2023-04-27T07:04:46.123Z,4.80
2023-04-27T07:07:12.710Z,4.50
2023-04-27T07:09:39.220Z,4.00
2023-04-27T07:12:05.904Z,3.70
2023-04-27T07:14:33.521Z,4.50
2023-04-27T07:17:00.047Z,3.97
2023-04-27T07:19:26.545Z,4.47
2023-04-27T07:21:53.050Z,4.27
2023-04-27T07:24:19.858Z,4.23
2023-04-27T07:26:46.379Z,4.20
2023-04-27T07:29:26.320Z,4.60
2023-04-27T07:31:54.942Z,4.50
2023-04-27T07:34:21.781Z,4.10
2023-04-27T07:36:48.247Z,4.07
2023-04-27T07:39:15.031Z,4.17
2023-04-27T07:41:41.690Z,3.90
2023-04-27T07:44:08.558Z,4.10
2023-04-27T07:46:35.110Z,4.60
2023-04-27T07:49:01.729Z,4.20
2023-04-27T07:51:28.201Z,4.40
2023-04-27T07:53:54.893Z,4.77
2023-04-27T07:56:21.390Z,4.47
2023-04-27T07:58:47.882Z,4.07
2023-04-27T08:01:14.371Z,4.97
2023-04-27T08:03:41.034Z,4.27
2023-04-27T08:06:08.158Z,3.87
2023-04-27T08:08:35.000Z,4.30
2023-04-27T08:11:01.496Z,4.03
2023-04-27T08:13:28.059Z,4.00
2023-04-27T08:15:58.491Z,4.40
2023-04-27T08:18:26.482Z,3.87
2023-04-27T08:20:53.468Z,4.03
2023-04-27T08:23:20.332Z,3.57
2023-04-27T08:25:47.690Z,4.07
2023-04-27T08:28:15.350Z,3.70
2023-04-27T08:30:42.505Z,3.77
2023-04-27T08:33:09.285Z,4.40
2023-04-27T08:35:35.801Z,4.10
2023-04-27T08:38:02.294Z,4.25
2023-04-27T08:40:28.817Z,4.30
2023-04-27T08:42:59.836Z,3.93
2023-04-27T08:45:27.923Z,4.37
2023-04-27T08:47:54.858Z,4.17
2023-04-27T08:50:23.441Z,4.53
2023-04-27T08:52:52.194Z,4.13
2023-04-27T08:55:19.034Z,4.20
2023-04-27T08:57:59.585Z,4.50
2023-04-27T09:00:26.624Z,4.17
2023-04-27T09:02:53.467Z,3.97
2023-04-27T09:05:23.772Z,3.90
2023-04-27T09:08:07.423Z,4.03
2023-04-27T09:10:51.867Z,4.10
2023-04-27T09:13:18.545Z,3.97
2023-04-27T09:15:50.805Z,4.57
2023-04-27T09:18:23.258Z,3.77
2023-04-27T09:20:52.459Z,4.63
2023-04-27T09:23:37.188Z,4.40
2023-04-27T09:26:08.816Z,3.90
2023-04-27T09:28:39.601Z,4.70
2023-04-27T09:31:08.379Z,4.70
2023-04-27T09:33:35.735Z,4.40
2023-04-27T09:36:05.448Z,4.45
2023-04-27T09:38:33.242Z,4.20
2023-04-27T09:41:00.869Z,4.43
2023-04-27T09:43:29.143Z,4.65
2023-04-27T09:45:56.316Z,4.15
2023-04-27T09:48:24.964Z,4.68
2023-04-27T09:50:52.463Z,5.30
2023-04-27T09:53:29.176Z,4.90
2023-04-27T09:59:44.004Z,4.85
2023-04-27T10:02:24.709Z,4.37
2023-04-27T10:05:42.002Z,4.33
2023-04-27T10:08:10.627Z,4.12
2023-04-27T10:10:50.011Z,4.95
2023-04-27T10:13:25.503Z,5.03
2023-04-27T10:15:53.158Z,4.37
2023-04-27T10:18:29.994Z,4.68
2023-04-27T10:21:08.752Z,4.80
2023-04-27T10:23:50.514Z,4.87
2023-04-27T10:26:27.591Z,5.00
2023-04-27T10:29:15.653Z,4.63
2023-04-27T10:31:47.792Z,4.15
2023-04-27T10:34:20.720Z,4.70
2023-04-27T10:36:47.995Z,4.60
2023-04-27T10:39:25.593Z,4.87
2023-04-27T10:41:59.354Z,4.43
2023-04-27T10:44:29.047Z,4.32
2023-04-27T10:47:19.028Z,4.60
2023-04-27T10:49:45.691Z,3.95
2023-04-27T10:52:12.342Z,5.03
2023-04-27T10:54:39.160Z,4.55
2023-04-27T10:57:10.659Z,4.97
2023-04-27T10:59:52.631Z,4.72
2023-04-27T11:02:28.359Z,4.68
2023-04-27T11:04:56.091Z,4.50
2023-04-27T11:07:27.443Z,4.78
2023-04-27T11:09:54.879Z,4.57
2023-04-27T11:12:21.761Z,4.75
2023-04-27T11:14:48.302Z,4.40
2023-04-27T11:17:14.810Z,4.82
2023-04-27T11:19:46.671Z,4.40
2023-04-27T11:22:18.280Z,4.45
2023-04-27T11:24:52.436Z,5.25
2023-04-27T11:27:21.465Z,4.10
2023-04-27T11:29:47.985Z,4.32
2023-04-27T11:32:25.041Z,4.47
2023-04-27T11:34:54.038Z,4.22
2023-04-27T11:37:24.649Z,4.70
2023-04-27T11:39:53.860Z,4.62
2023-04-27T11:42:29.210Z,4.37
2023-04-27T11:45:08.382Z,4.70
2023-04-27T11:47:35.283Z,4.57
2023-04-27T11:50:07.136Z,5.20
2023-04-27T11:52:39.440Z,4.60
2023-04-27T11:55:08.267Z,4.25
2023-04-27T11:57:36.022Z,4.35
2023-04-27T12:00:11.724Z,4.78
2023-04-27T12:02:38.762Z,4.00
2023-04-27T12:05:07.052Z,4.10
2023-04-27T12:07:33.807Z,4.00
2023-04-27T12:10:01.117Z,4.35
2023-04-27T12:12:27.887Z,4.65
2023-04-27T12:14:54.405Z,3.78
2023-04-27T12:17:20.864Z,3.80
2023-04-27T12:19:47.373Z,3.70
2023-04-27T12:22:14.890Z,3.85
2023-04-27T12:24:41.433Z,3.85
2023-04-27T12:27:07.954Z,4.75
2023-04-27T12:29:34.727Z,4.40
2023-04-27T12:32:01.256Z,3.85
2023-04-27T12:34:27.857Z,4.12
2023-04-27T12:36:54.377Z,3.92
2023-04-27T12:39:25.525Z,3.53
2023-04-27T12:41:53.154Z,4.25
2023-04-27T12:44:20.761Z,4.05
2023-04-27T12:46:47.781Z,3.65
2023-04-27T12:49:14.447Z,3.70
2023-04-27T12:51:41.064Z,3.70
2023-04-27T12:54:10.197Z,3.60
2023-04-27T12:56:36.733Z,3.50
2023-04-27T12:59:03.791Z,4.25
2023-04-27T13:01:30.918Z,3.70
2023-04-27T13:04:04.156Z,4.20
2023-04-27T13:06:31.615Z,4.05
2023-04-27T13:08:58.964Z,4.28
2023-04-27T13:11:25.538Z,3.80
2023-04-27T13:13:52.073Z,3.60
2023-04-27T13:16:20.871Z,4.07
2023-04-27T13:18:49.071Z,4.28
2023-04-27T13:21:17.063Z,3.92
2023-04-27T13:23:43.566Z,3.80
2023-04-27T13:26:10.738Z,4.12
2023-04-27T13:28:37.260Z,3.87
2023-04-27T13:31:04.077Z,4.10
2023-04-27T13:33:32.652Z,3.80
2023-04-27T13:36:01.482Z,3.80
2023-04-27T13:38:28.345Z,3.85
2023-04-27T13:40:54.846Z,4.20
2023-04-27T13:43:21.545Z,3.67
2023-04-27T13:45:50.033Z,3.97
2023-04-27T13:48:16.620Z,4.50
2023-04-27T13:50:43.197Z,4.00
2023-04-27T13:53:09.697Z,4.60
2023-04-27T13:55:36.512Z,4.50
2023-04-27T13:58:03.066Z,4.68
2023-04-27T14:00:32.660Z,4.57
2023-04-27T14:03:00.544Z,4.87
2023-04-27T14:05:27.808Z,4.80
2023-04-27T14:07:54.286Z,4.50
2023-04-27T14:10:22.074Z,4.57
2023-04-27T14:12:48.671Z,4.50
2023-04-27T14:15:15.474Z,4.32
2023-04-27T14:17:41.974Z,3.90
2023-04-27T14:20:08.858Z,4.25
2023-04-27T14:22:35.899Z,4.23
2023-04-27T14:25:02.716Z,4.32
2023-04-27T14:27:29.227Z,4.37
2023-04-27T14:29:55.705Z,4.22
2023-04-27T14:32:22.598Z,4.57
2023-04-27T14:34:49.116Z,4.60
2023-04-27T14:37:15.604Z,3.97
2023-04-27T14:39:45.016Z,4.05
2023-04-27T14:42:11.891Z,3.75
2023-04-27T14:44:38.382Z,4.82
2023-04-27T14:47:05.743Z,3.90
2023-04-27T14:49:32.303Z,3.83
2023-04-27T14:52:02.462Z,4.28
2023-04-27T14:54:28.955Z,5.30
2023-04-27T14:56:57.579Z,4.18
2023-04-27T14:59:25.052Z,4.12
2023-04-27T15:01:51.580Z,3.80
2023-04-27T15:04:18.183Z,3.92
2023-04-27T15:06:45.250Z,3.78
2023-04-27T15:09:12.305Z,3.85
2023-04-27T15:11:38.833Z,4.37
2023-04-27T15:14:05.340Z,3.83
2023-04-27T15:16:31.905Z,5.30
2023-04-27T15:18:58.454Z,4.20
2023-04-27T15:21:25.003Z,3.65
2023-04-27T15:23:51.472Z,3.90
2023-04-27T15:26:17.947Z,3.83
2023-04-27T15:28:44.429Z,3.70
2023-04-27T15:31:11.032Z,3.72
2023-04-27T15:33:37.585Z,3.47
2023-04-27T15:36:04.510Z,3.90
2023-04-27T15:38:31.013Z,3.67
2023-04-27T15:40:57.925Z,3.65
2023-04-27T15:43:24.412Z,3.72
2023-04-27T15:45:50.922Z,4.15
2023-04-27T15:48:17.397Z,4.32
2023-04-27T15:50:46.030Z,3.60
2023-04-27T15:53:12.857Z,4.12
2023-04-27T15:55:39.878Z,3.70
2023-04-27T15:58:06.355Z,3.95
2023-04-27T16:00:34.276Z,3.80
2023-04-27T16:03:00.947Z,3.90
2023-04-27T16:05:27.724Z,3.87
2023-04-27T16:07:54.259Z,3.70
2023-04-27T16:10:20.784Z,3.85
2023-04-27T16:12:47.247Z,3.75
2023-04-27T16:15:13.769Z,3.58
2023-04-27T16:17:40.326Z,3.50
2023-04-27T16:20:07.838Z,3.50
2023-04-27T16:22:35.589Z,3.90
2023-04-27T16:25:03.258Z,3.60
2023-04-27T16:27:30.849Z,3.45
2023-04-27T16:29:57.336Z,3.75
2023-04-27T16:32:23.907Z,3.70
2023-04-27T16:34:50.575Z,3.95
2023-04-27T16:37:17.043Z,3.20
2023-04-27T16:39:43.527Z,3.33
2023-04-27T16:42:10.030Z,3.70
2023-04-27T16:44:37.944Z,3.37
2023-04-27T16:47:04.492Z,3.77
2023-04-27T16:49:30.996Z,3.30
2023-04-27T16:51:57.476Z,3.10
2023-04-27T16:54:23.999Z,3.47
2023-04-27T16:56:50.499Z,3.40
2023-04-27T16:59:17.151Z,3.50
2023-04-27T17:01:43.802Z,3.22
2023-04-27T17:04:10.837Z,3.70
2023-04-27T17:06:39.673Z,3.20
2023-04-27T17:09:07.422Z,3.15
2023-04-27T17:11:34.034Z,3.43
2023-04-27T17:14:01.005Z,3.60
2023-04-27T17:16:27.544Z,3.28
2023-04-27T17:18:54.801Z,3.13
2023-04-27T17:21:22.012Z,3.80
2023-04-27T17:23:49.951Z,3.45
2023-04-27T17:26:19.153Z,2.97
2023-04-27T17:28:46.688Z,3.13
2023-04-27T17:31:13.285Z,3.40
2023-04-27T17:33:39.874Z,3.17
2023-04-27T17:36:06.660Z,3.53
2023-04-27T17:38:33.176Z,3.23
2023-04-27T17:40:59.664Z,3.70
2023-04-27T17:43:26.217Z,3.10
2023-04-27T17:45:52.714Z,3.53
2023-04-27T17:48:19.401Z,3.40
2023-04-27T17:50:45.987Z,3.53
2023-04-27T17:53:14.506Z,3.47
2023-04-27T17:55:47.259Z,3.43
2023-04-27T17:58:14.815Z,3.90
2023-04-27T18:00:42.372Z,3.33
2023-04-27T18:03:09.293Z,3.40
2023-04-27T18:05:36.159Z,3.97
2023-04-27T18:08:02.656Z,3.93
2023-04-27T18:10:29.160Z,4.10
2023-04-27T18:12:55.703Z,21.10
2023-04-27T18:15:22.287Z,7.73
2023-04-27T18:17:48.863Z,35.57
2023-04-27T18:20:15.522Z,45.37
2023-04-27T18:22:42.064Z,29.23
2023-04-27T18:25:09.913Z,10.20
2023-04-27T18:27:36.921Z,9.77
2023-04-27T18:30:07.485Z,8.60
2023-04-27T18:32:34.400Z,5.07
2023-04-27T18:35:01.593Z,5.00
2023-04-27T18:37:28.334Z,4.07
2023-04-27T18:39:54.994Z,3.97
2023-04-27T18:42:22.649Z,3.83
2023-04-27T18:44:50.974Z,3.87
2023-04-27T18:47:17.455Z,4.43
2023-04-27T18:49:43.916Z,5.10
2023-04-27T18:52:10.705Z,5.07
2023-04-27T18:54:37.998Z,4.83
2023-04-27T18:57:04.996Z,4.70
2023-04-27T18:59:31.536Z,4.10
2023-04-27T19:01:58.135Z,4.87
2023-04-27T19:04:25.438Z,4.53
2023-04-27T19:06:52.022Z,5.03
2023-04-27T19:09:18.544Z,5.10
2023-04-27T19:11:49.412Z,3.90
2023-04-27T19:14:19.305Z,4.23
2023-04-27T19:16:46.069Z,3.83
2023-04-27T19:19:13.148Z,4.63
2023-04-27T19:21:41.153Z,4.77
2023-04-27T19:24:07.735Z,4.20
2023-04-27T19:26:34.296Z,4.30
2023-04-27T19:29:00.814Z,3.63
2023-04-27T19:31:27.579Z,3.63
2023-04-27T19:33:55.014Z,3.63
2023-04-27T19:36:22.352Z,4.20
2023-04-27T19:38:48.823Z,3.67
2023-04-27T19:41:15.317Z,3.83
2023-04-27T19:43:41.800Z,4.27
2023-04-27T19:46:08.370Z,4.30
2023-04-27T19:48:34.928Z,3.77
2023-04-27T19:51:01.430Z,4.23
2023-04-27T19:53:27.899Z,4.27
2023-04-27T19:55:54.915Z,4.20
2023-04-27T19:58:21.477Z,4.80
2023-04-27T20:00:47.996Z,3.90
2023-04-27T20:03:14.680Z,4.70
2023-04-27T20:05:41.960Z,4.07
2023-04-27T20:08:08.555Z,4.60
2023-04-27T20:10:35.087Z,3.93
2023-04-27T20:13:01.580Z,4.00
2023-04-27T20:15:28.114Z,4.60
2023-04-27T20:17:54.645Z,4.30
2023-04-27T20:20:21.398Z,5.00
2023-04-27T20:22:50.557Z,4.90
2023-04-27T20:25:18.819Z,5.00
2023-04-27T20:27:45.649Z,6.80
2023-04-27T20:30:12.298Z,6.80
2023-04-27T20:32:39.630Z,5.43
2023-04-27T20:35:10.570Z,4.40
2023-04-27T20:37:38.552Z,4.57
2023-04-27T20:40:07.069Z,5.07
2023-04-27T20:42:33.845Z,5.57
2023-04-27T20:45:00.323Z,5.73
2023-04-27T20:47:26.858Z,5.73
2023-04-27T20:49:53.407Z,4.97
2023-04-27T20:52:20.051Z,5.33
2023-04-27T20:54:46.573Z,6.90
2023-04-27T20:57:13.564Z,6.80
2023-04-27T20:59:40.841Z,6.50
2023-04-27T21:02:07.587Z,5.93
2023-04-27T21:04:34.202Z,5.10
2023-04-27T21:07:00.747Z,4.93
2023-04-27T21:09:27.277Z,4.60
2023-04-27T21:11:53.785Z,4.77
2023-04-27T21:14:20.291Z,5.07
2023-04-27T21:16:46.807Z,4.30
2023-04-27T21:19:15.417Z,5.20
2023-04-27T21:21:42.219Z,4.87
2023-04-27T21:24:09.563Z,5.20
2023-04-27T21:26:36.119Z,4.90
2023-04-27T21:29:04.671Z,4.60
2023-04-27T21:31:32.918Z,4.70
2023-04-27T21:33:59.529Z,4.73
2023-04-27T21:36:26.073Z,5.10
2023-04-27T21:38:52.585Z,5.53
2023-04-27T21:41:19.132Z,5.33
2023-04-27T21:43:45.719Z,6.10
2023-04-27T21:46:12.247Z,4.97
2023-04-27T21:48:38.751Z,5.00
2023-04-27T21:51:05.310Z,4.80
2023-04-27T21:53:31.949Z,5.20
2023-04-27T21:55:58.718Z,5.87
2023-04-27T21:58:25.522Z,5.10
2023-04-27T22:00:52.003Z,5.07
2023-04-27T22:03:18.612Z,4.80
2023-04-27T22:05:48.076Z,5.33
2023-04-27T22:08:14.562Z,5.43
2023-04-27T22:10:41.063Z,5.27
2023-04-27T22:13:17.714Z,5.13
2023-04-27T22:15:46.168Z,5.40
2023-04-27T22:18:14.102Z,5.33
2023-04-27T22:20:40.817Z,5.70
2023-04-27T22:23:08.510Z,4.83
2023-04-27T22:25:35.353Z,5.10
2023-04-27T22:28:01.838Z,5.23
2023-04-27T22:30:29.125Z,5.40
2023-04-27T22:32:56.715Z,5.60
2023-04-27T22:35:26.929Z,5.07
2023-04-27T22:38:00.308Z,4.73
2023-04-27T22:40:26.936Z,5.33
2023-04-27T22:42:54.698Z,5.17
2023-04-27T22:45:22.774Z,4.80
2023-04-27T22:47:49.728Z,5.10
2023-04-27T22:50:16.404Z,4.73
2023-04-27T22:52:42.953Z,4.73
2023-04-27T22:55:11.408Z,5.50
2023-04-27T22:57:38.784Z,5.00
2023-04-27T23:00:08.281Z,5.40
2023-04-27T23:02:34.902Z,4.80
2023-04-27T23:05:01.488Z,5.70
2023-04-27T23:07:27.962Z,5.47
2023-04-27T23:09:54.431Z,5.30
2023-04-27T23:12:21.324Z,5.33
2023-04-27T23:14:47.813Z,5.27
2023-04-27T23:17:14.620Z,5.13
2023-04-27T23:19:41.127Z,4.97
2023-04-27T23:22:07.620Z,5.13
2023-04-27T23:24:34.112Z,4.87
2023-04-27T23:27:00.649Z,5.47
2023-04-27T23:29:27.145Z,5.27
2023-04-27T23:31:53.614Z,5.30
2023-04-27T23:34:20.086Z,5.23
2023-04-27T23:36:46.738Z,5.43
2023-04-27T23:39:13.234Z,4.83
2023-04-27T23:41:39.708Z,4.90
2023-04-27T23:44:06.192Z,5.50
2023-04-27T23:46:32.799Z,5.37
2023-04-27T23:48:59.280Z,5.20
2023-04-27T23:51:26.368Z,5.37
2023-04-27T23:53:52.851Z,5.27
2023-04-27T23:56:19.663Z,5.10
2023-04-27T23:58:46.190Z,5.10
